Time;durP1;ratioP1;P1;durP2;ratioP2;P2;SDS_P1;SDS_P2;PMS_P1;PMS_P2;Temp;Humidity;BMP_temperature;BMP_pressure;BME280_temperature;BME280_humidity;BME280_pressure;Samples;Min_cycle;Max_cycle;Signal;HPM_P1;HPM_P2
2023/10/21 00:00:53;;;;;;;1.30;0.80;;;;;;;-143.84;52.34;45050.97;5012016;28;20459;-56
2023/10/21 00:03:20;;;;;;;1.10;0.97;;;;;;;-143.84;52.44;45045.25;5011496;28;20431;-56
2023/10/21 00:05:49;;;;;;;0.83;0.50;;;;;;;-143.84;52.47;45049.06;5011627;28;20439;-56
2023/10/21 00:08:16;;;;;;;1.17;0.90;;;;;;;-143.84;52.92;45037.66;5011188;28;20855;-56
2023/10/21 00:10:43;;;;;;;0.90;0.80;;;;;;;-143.84;53.15;45049.06;5011406;28;20443;-56
2023/10/21 00:13:10;;;;;;;1.00;0.70;;;;;;;-143.84;52.77;45045.25;5011713;28;21076;-56
2023/10/21 00:15:37;;;;;;;1.10;0.73;;;;;;;-143.84;52.64;45050.97;5011411;28;20447;-56
2023/10/21 00:18:05;;;;;;;2.33;1.30;;;;;;;-143.84;52.61;45045.25;5011316;28;20495;-56
2023/10/21 00:20:32;;;;;;;1.20;0.97;;;;;;;-143.84;52.79;45056.69;5011373;28;20440;-56
2023/10/21 00:23:00;;;;;;;0.90;0.50;;;;;;;-143.84;52.81;45041.44;5011289;28;20439;-56
2023/10/21 00:25:28;;;;;;;1.10;0.90;;;;;;;-143.84;52.87;45037.66;5011176;28;20440;-56
2023/10/21 00:27:55;;;;;;;3.07;1.23;;;;;;;-143.84;52.45;45031.94;5010971;28;20435;-56
2023/10/21 00:30:23;;;;;;;1.00;0.70;;;;;;;-143.84;52.81;45026.22;5010803;28;20440;-56
2023/10/21 00:32:50;;;;;;;0.97;0.70;;;;;;;-143.84;52.77;45005.28;5011166;28;20461;-56
2023/10/21 00:35:17;;;;;;;1.00;0.77;;;;;;;-143.84;52.55;45020.50;5011050;28;20447;-56
2023/10/21 00:37:44;;;;;;;1.00;0.90;;;;;;;-143.84;52.83;45039.53;5010796;28;20454;-56
2023/10/21 00:40:13;;;;;;;1.13;0.70;;;;;;;-143.84;52.67;45050.97;5010763;28;20439;-56
2023/10/21 00:42:40;;;;;;;0.90;0.60;;;;;;;-143.84;52.38;45049.06;5010707;28;20506;-56
2023/10/21 00:45:09;;;;;;;0.80;0.43;;;;;;;-143.84;52.50;45058.59;5010644;28;20448;-56
2023/10/21 00:47:36;;;;;;;0.90;0.40;;;;;;;-143.84;52.49;45054.78;5010679;28;20549;-56
2023/10/21 00:50:05;;;;;;;0.90;0.60;;;;;;;-143.84;52.30;45066.22;5010044;28;20439;-56
2023/10/21 00:52:32;;;;;;;1.23;0.90;;;;;;;-143.84;52.19;45056.69;5010046;28;20937;-56
2023/10/21 00:55:02;;;;;;;2.50;0.83;;;;;;;-143.84;51.91;45041.44;5010156;28;20448;-56
2023/10/21 00:57:31;;;;;;;0.80;0.60;;;;;;;-143.84;51.56;45060.50;5010297;28;20529;-56
2023/10/21 00:59:58;;;;;;;0.90;0.60;;;;;;;-143.84;50.95;45049.06;5010011;28;20490;-56
2023/10/21 01:02:25;;;;;;;0.90;0.60;;;;;;;-143.84;50.63;45033.84;5010035;28;20451;-56
2023/10/21 01:04:52;;;;;;;0.80;0.40;;;;;;;-143.84;51.21;45056.69;5010097;28;20503;-56
2023/10/21 01:07:19;;;;;;;0.93;0.83;;;;;;;-143.84;51.16;45056.69;5010358;28;20451;-56
2023/10/21 01:09:46;;;;;;;1.00;0.80;;;;;;;-143.84;51.43;45064.31;5010513;28;20440;-56
2023/10/21 01:12:13;;;;;;;0.90;0.77;;;;;;;-143.84;51.15;45028.13;5010181;28;21104;-56
2023/10/21 01:14:42;;;;;;;1.20;0.87;;;;;;;-143.84;50.90;45039.53;5010189;28;20786;-56
2023/10/21 01:17:09;;;;;;;0.80;0.53;;;;;;;-143.84;50.89;45043.34;5009943;28;20491;-56
2023/10/21 01:19:36;;;;;;;1.93;0.97;;;;;;;-143.84;50.49;45045.25;5010300;28;20483;-56
2023/10/21 01:22:02;;;;;;;0.90;0.70;;;;;;;-143.84;50.76;45062.41;5009965;28;20439;-56
2023/10/21 01:24:31;;;;;;;0.90;0.60;;;;;;;-143.84;50.79;45052.88;5010032;28;20463;-56
2023/10/21 01:26:58;;;;;;;1.77;1.03;;;;;;;-143.84;50.34;45041.44;5010012;28;20957;-56
2023/10/21 01:29:25;;;;;;;1.30;1.00;;;;;;;-143.84;50.67;45047.16;5010085;28;20882;-58
2023/10/21 01:31:52;;;;;;;0.80;0.50;;;;;;;-143.84;50.86;45056.69;5009807;28;20443;-58
2023/10/21 01:34:19;;;;;;;1.00;0.80;;;;;;;-143.84;51.37;45026.22;5009727;28;20493;-58
2023/10/21 01:36:48;;;;;;;1.00;0.90;;;;;;;-143.84;51.56;45041.44;5009793;28;20517;-58
2023/10/21 01:39:15;;;;;;;1.37;1.27;;;;;;;-143.84;52.23;45035.75;5009861;28;20483;-56
2023/10/21 01:41:44;;;;;;;1.10;0.80;;;;;;;-143.84;52.15;45039.53;5009960;28;20505;-56
2023/10/21 01:44:11;;;;;;;0.90;0.50;;;;;;;-143.84;52.59;45052.88;5010075;28;20450;-56
2023/10/21 01:46:38;;;;;;;1.57;0.67;;;;;;;-143.84;52.25;45037.66;5009829;28;21113;-56
2023/10/21 01:49:05;;;;;;;1.00;0.87;;;;;;;-143.84;52.58;45043.34;5009951;28;20555;-56
2023/10/21 01:51:32;;;;;;;0.90;0.50;;;;;;;-143.84;51.68;45047.16;5009862;28;20439;-56
2023/10/21 01:54:00;;;;;;;0.90;0.60;;;;;;;-143.84;51.56;45033.84;5009709;28;20491;-56
2023/10/21 01:56:27;;;;;;;1.00;0.90;;;;;;;-143.84;52.00;45039.53;5009730;28;20486;-56
2023/10/21 01:58:55;;;;;;;0.90;0.60;;;;;;;-143.84;52.55;45054.78;5009601;28;20475;-56
2023/10/21 02:01:22;;;;;;;0.80;0.40;;;;;;;-143.84;52.51;45050.97;5009437;28;20451;-56
2023/10/21 02:03:49;;;;;;;1.20;0.90;;;;;;;-143.84;52.70;45056.69;5009229;28;20451;-56
2023/10/21 02:06:16;;;;;;;1.10;0.80;;;;;;;-143.84;52.67;45056.69;5009374;28;20448;-57
2023/10/21 02:08:44;;;;;;;1.10;0.87;;;;;;;-143.84;52.64;45050.97;5009333;28;20439;-56
2023/10/21 02:11:11;;;;;;;0.83;0.50;;;;;;;-143.84;52.35;45045.25;5009412;28;20949;-58
2023/10/21 02:13:38;;;;;;;1.77;1.10;;;;;;;-143.84;52.17;45068.13;5009253;28;20853;-58
2023/10/21 02:16:11;;;;;;;0.90;0.50;;;;;;;-143.84;52.10;45052.88;5009181;28;20459;-58
2023/10/21 02:18:38;;;;;;;1.20;0.93;;;;;;;-143.84;51.52;45030.03;5007722;28;20495;-59
2023/10/21 02:21:06;;;;;;;1.00;0.90;;;;;;;-143.84;50.90;45058.59;5009224;28;20494;-58
2023/10/21 02:23:34;;;;;;;3.57;0.80;;;;;;;-143.84;50.55;45071.91;5009114;28;20458;-58
2023/10/21 02:26:01;;;;;;;0.90;0.60;;;;;;;-143.84;50.07;45050.97;5008950;28;20443;-58
2023/10/21 02:28:28;;;;;;;0.90;0.60;;;;;;;-143.84;49.51;45031.94;5009023;28;20502;-58
2023/10/21 02:30:55;;;;;;;0.90;0.60;;;;;;;-143.84;49.17;45056.69;5008745;28;20447;-59
2023/10/21 02:33:24;;;;;;;2.07;0.70;;;;;;;-143.84;49.42;45054.78;5008941;28;20438;-59
2023/10/21 02:35:55;;;;;;;0.80;0.40;;;;;;;-143.84;48.67;45052.88;5008689;28;20447;-59
2023/10/21 02:38:23;;;;;;;1.37;0.80;;;;;;;-143.84;48.23;45043.34;5008299;28;20443;-59
2023/10/21 02:40:50;;;;;;;3.27;0.83;;;;;;;-143.84;47.80;45035.75;5008218;28;20539;-58
2023/10/21 02:43:18;;;;;;;1.23;1.13;;;;;;;-143.84;47.23;45039.53;5008573;28;20811;-59
2023/10/21 02:45:45;;;;;;;0.90;0.60;;;;;;;-143.84;47.20;45022.41;5008008;28;20454;-59
2023/10/21 02:48:12;;;;;;;0.80;0.47;;;;;;;-143.84;47.13;45050.97;5008313;28;20440;-58
2023/10/21 02:50:41;;;;;;;2.10;1.10;;;;;;;-143.84;47.00;45049.06;5008729;28;20442;-58
2023/10/21 02:53:08;;;;;;;1.73;0.80;;;;;;;-143.84;46.97;45045.25;5008730;28;20448;-58
2023/10/21 02:55:36;;;;;;;0.90;0.53;;;;;;;-143.84;46.91;45024.31;5008907;28;20435;-58
2023/10/21 02:58:04;;;;;;;1.43;0.70;;;;;;;-143.84;46.91;45049.06;5009101;28;20442;-59
2023/10/21 03:00:31;;;;;;;0.90;0.63;;;;;;;-143.84;46.52;45045.25;5008599;28;20493;-58
2023/10/21 03:02:59;;;;;;;1.47;1.37;;;;;;;-143.84;46.55;45030.03;5008714;28;20501;-58
2023/10/21 03:05:26;;;;;;;1.00;0.67;;;;;;;-143.84;46.63;45054.78;5008547;28;20954;-58
2023/10/21 03:07:54;;;;;;;0.87;0.50;;;;;;;-143.84;46.39;45056.69;5008662;28;20477;-58
2023/10/21 03:10:22;;;;;;;1.00;0.90;;;;;;;-143.84;46.01;45041.44;5008874;28;20971;-58
2023/10/21 03:12:50;;;;;;;0.80;0.50;;;;;;;-143.84;46.24;45030.03;5008537;28;20439;-59
2023/10/21 03:15:17;;;;;;;1.17;1.07;;;;;;;-143.84;46.23;45052.88;5008334;28;20443;-58
2023/10/21 03:17:44;;;;;;;1.47;0.67;;;;;;;-143.84;46.36;45049.06;5008507;28;20491;-56
2023/10/21 03:20:11;;;;;;;1.40;0.53;;;;;;;-143.84;46.55;45049.06;5008398;28;20483;-56
2023/10/21 03:22:39;;;;;;;1.20;0.67;;;;;;;-143.84;46.78;45064.31;5008750;28;20435;-56
2023/10/21 03:25:08;;;;;;;1.00;0.73;;;;;;;-143.84;46.99;45050.97;5008506;28;20443;-56
2023/10/21 03:27:36;;;;;;;0.87;0.50;;;;;;;-143.84;47.05;45028.13;5008384;28;20455;-57
2023/10/21 03:30:04;;;;;;;0.83;0.50;;;;;;;-143.84;47.29;45020.50;5012022;28;20458;-56
2023/10/21 03:32:32;;;;;;;0.90;0.60;;;;;;;-143.84;47.90;45035.75;5012195;28;20475;-56
2023/10/21 03:34:59;;;;;;;0.87;0.57;;;;;;;-143.84;47.85;45035.75;5012371;28;20451;-56
2023/10/21 03:37:26;;;;;;;1.00;0.60;;;;;;;-143.84;47.74;45033.84;5005115;28;20455;-56
2023/10/21 03:39:53;;;;;;;1.33;1.23;;;;;;;-143.84;47.66;45049.06;4992656;28;21091;-56
2023/10/21 03:42:22;;;;;;;1.10;1.00;;;;;;;-143.84;47.91;45066.22;4992549;28;20444;-56
2023/10/21 03:44:49;;;;;;;1.00;0.80;;;;;;;-143.84;48.06;45033.84;4992299;28;20531;-56
2023/10/21 03:47:17;;;;;;;1.03;0.80;;;;;;;-143.84;48.13;45064.31;4992300;28;20806;-56
2023/10/21 03:49:44;;;;;;;0.90;0.60;;;;;;;-143.84;48.07;45081.44;4992601;28;20436;-56
2023/10/21 03:52:11;;;;;;;1.00;0.80;;;;;;;-143.84;48.03;45035.75;4992303;28;20448;-56
2023/10/21 03:54:38;;;;;;;1.20;0.90;;;;;;;-143.84;47.97;45075.72;4992488;28;20472;-59
2023/10/21 03:57:06;;;;;;;0.80;0.50;;;;;;;-143.84;48.11;45047.16;4992078;28;20448;-58
2023/10/21 03:59:34;;;;;;;0.80;0.50;;;;;;;-143.84;47.94;45033.84;4991751;28;20534;-58
2023/10/21 04:02:01;;;;;;;1.00;0.70;;;;;;;-143.84;48.32;45009.09;4991947;28;20941;-58
2023/10/21 04:04:29;;;;;;;1.10;0.87;;;;;;;-143.84;48.15;45022.41;4993221;28;20958;-58
2023/10/21 04:06:56;;;;;;;0.90;0.50;;;;;;;-143.84;47.97;45045.25;5011127;28;20869;-59
2023/10/21 04:09:25;;;;;;;0.93;0.70;;;;;;;-143.84;47.78;45030.03;5011518;28;20515;-58
2023/10/21 04:11:52;;;;;;;0.90;0.63;;;;;;;-143.84;47.49;45058.59;5011513;28;20447;-58
2023/10/21 04:14:19;;;;;;;0.90;0.60;;;;;;;-143.84;47.46;45056.69;5003063;28;20529;-58
2023/10/21 04:16:49;;;;;;;0.80;0.50;;;;;;;-143.84;46.90;45052.88;4991346;28;20460;-59
2023/10/21 04:19:16;;;;;;;0.90;0.50;;;;;;;-143.84;46.75;45045.25;4991496;28;20480;-59
2023/10/21 04:21:44;;;;;;;0.93;0.60;;;;;;;-143.84;47.01;45031.94;5010694;28;20471;-58
2023/10/21 04:24:11;;;;;;;0.93;0.80;;;;;;;-143.84;46.83;45073.81;5014465;28;20509;-58
2023/10/21 04:26:38;;;;;;;1.30;1.07;;;;;;;-143.84;46.95;45018.59;5015204;28;20452;-59
2023/10/21 04:29:05;;;;;;;0.90;0.50;;;;;;;-143.84;46.61;45071.91;5018149;28;20452;-58
2023/10/21 04:31:35;;;;;;;1.87;0.93;;;;;;;-143.84;46.15;45030.03;5010564;28;20450;-58
2023/10/21 04:34:04;;;;;;;0.90;0.60;;;;;;;-143.84;46.14;45050.97;5014514;28;20450;-58
2023/10/21 04:36:31;;;;;;;1.10;0.87;;;;;;;-143.84;46.36;45045.25;5022937;28;20452;-58
2023/10/21 04:38:58;;;;;;;0.90;0.50;;;;;;;-143.84;46.63;45016.69;5015266;28;20443;-58
2023/10/21 04:41:25;;;;;;;0.90;0.80;;;;;;;-143.84;46.70;45026.22;5013757;28;20458;-58
2023/10/21 04:43:52;;;;;;;1.00;0.90;;;;;;;-143.84;47.04;45071.91;5019577;28;20451;-58
2023/10/21 04:46:19;;;;;;;0.90;0.60;;;;;;;-143.84;47.12;45049.06;5014431;28;20518;-58
2023/10/21 04:48:46;;;;;;;1.00;0.70;;;;;;;-143.84;46.88;45062.41;5026729;28;20450;-58
2023/10/21 04:51:15;;;;;;;1.10;1.00;;;;;;;-143.84;46.66;45049.06;5018511;28;20447;-58
2023/10/21 04:53:42;;;;;;;0.90;0.50;;;;;;;-143.84;46.75;45024.31;5013790;28;21041;-58
2023/10/21 04:56:09;;;;;;;1.00;0.90;;;;;;;-143.84;46.68;45035.75;5021804;28;20454;-58
2023/10/21 04:58:36;;;;;;;0.90;0.60;;;;;;;-143.84;46.11;45033.84;5014648;28;20801;-58
2023/10/21 05:01:05;;;;;;;0.90;0.57;;;;;;;-143.84;46.15;45049.06;5015031;28;20483;-58
2023/10/21 05:03:32;;;;;;;1.20;1.00;;;;;;;-143.84;46.02;45043.34;5024070;28;20453;-58
2023/10/21 05:05:59;;;;;;;1.10;1.00;;;;;;;-143.84;45.61;45056.69;5021227;28;20451;-57
2023/10/21 05:08:28;;;;;;;1.20;0.90;;;;;;;-143.84;45.20;45026.22;5016651;28;20869;-56
2023/10/21 05:10:55;;;;;;;1.23;0.73;;;;;;;-143.84;44.88;45026.22;5021164;28;21080;-57
2023/10/21 05:13:22;;;;;;;4.23;2.50;;;;;;;-143.84;44.55;45054.78;5025118;28;20890;-57
2023/10/21 05:15:51;;;;;;;1.97;1.07;;;;;;;-143.84;44.58;45054.78;5021258;28;20824;-57
2023/10/21 05:18:18;;;;;;;0.90;0.53;;;;;;;-143.84;44.75;45031.94;5025817;28;20604;-57
2023/10/21 05:20:46;;;;;;;1.13;0.60;;;;;;;-143.84;44.93;45037.66;5019577;28;20490;-57
2023/10/21 05:23:13;;;;;;;1.03;0.93;;;;;;;-143.84;44.87;45045.25;5022417;28;20446;-56
2023/10/21 05:25:42;;;;;;;0.80;0.57;;;;;;;-143.84;44.62;45033.84;5018901;28;20451;-56
2023/10/21 05:28:10;;;;;;;1.17;0.70;;;;;;;-143.84;44.67;45050.97;5021108;28;20514;-56
2023/10/21 05:30:37;;;;;;;0.90;0.60;;;;;;;-143.84;44.20;45068.13;5022456;28;20951;-56
2023/10/21 05:33:04;;;;;;;1.67;0.80;;;;;;;-143.84;44.09;45024.31;5012556;28;20447;-56
2023/10/21 05:35:32;;;;;;;0.90;0.50;;;;;;;-143.84;44.18;45041.44;5013419;28;21055;-56
2023/10/21 05:37:59;;;;;;;0.90;0.50;;;;;;;-143.84;43.79;45066.22;5023158;28;20483;-56
2023/10/21 05:40:26;;;;;;;1.30;1.20;;;;;;;-143.84;43.49;45024.31;5023877;28;20527;-56
2023/10/21 05:42:55;;;;;;;1.00;0.80;;;;;;;-143.84;43.45;45018.59;5019080;28;21177;-56
2023/10/21 05:45:23;;;;;;;1.10;0.70;;;;;;;-143.84;42.76;45026.22;5017115;28;20456;-56
2023/10/21 05:47:50;;;;;;;1.73;0.77;;;;;;;-143.84;42.32;45041.44;5021116;28;21276;-56
2023/10/21 05:50:19;;;;;;;0.90;0.50;;;;;;;-143.84;42.19;45049.06;5024405;28;20465;-56
2023/10/21 05:52:46;;;;;;;1.00;0.53;;;;;;;-143.84;41.98;45026.22;5019392;28;20454;-56
2023/10/21 05:55:14;;;;;;;1.00;0.50;;;;;;;-143.84;42.22;45031.94;5012958;28;20455;-57
2023/10/21 05:57:41;;;;;;;0.90;0.50;;;;;;;-143.84;42.13;45020.50;5023540;28;20446;-57
2023/10/21 06:00:12;;;;;;;1.20;0.60;;;;;;;-143.84;41.63;45014.78;5022834;28;20482;-56
2023/10/21 06:02:39;;;;;;;0.90;0.60;;;;;;;-143.84;41.93;45035.75;5020599;28;20464;-57
2023/10/21 06:05:06;;;;;;;2.63;1.50;;;;;;;-143.84;41.53;45026.22;5021455;28;20941;-56
2023/10/21 06:07:33;;;;;;;7.07;1.50;;;;;;;-143.84;41.30;45026.22;5021897;28;20489;-56
2023/10/21 06:10:01;;;;;;;0.97;0.63;;;;;;;-143.84;41.08;45026.22;5022250;28;20447;-57
2023/10/21 06:12:28;;;;;;;1.17;0.77;;;;;;;-143.84;40.52;45010.97;5023326;28;20442;-57
2023/10/21 06:14:55;;;;;;;0.90;0.53;;;;;;;-143.84;40.22;45028.13;5019792;28;20525;-57
2023/10/21 06:17:24;;;;;;;0.90;0.50;;;;;;;-143.84;40.29;45020.50;5020130;28;20482;-57
2023/10/21 06:19:51;;;;;;;0.93;0.80;;;;;;;-143.84;39.96;45031.94;5010870;28;20490;-57
2023/10/21 06:22:18;;;;;;;1.00;0.70;;;;;;;-143.84;40.25;45010.97;5015481;28;20438;-59
2023/10/21 06:24:47;;;;;;;0.90;0.57;;;;;;;-143.84;40.11;45010.97;5020143;28;20519;-59
2023/10/21 06:27:14;;;;;;;1.00;0.70;;;;;;;-143.84;39.61;44993.84;5015947;28;20459;-59
2023/10/21 06:29:41;;;;;;;3.40;1.57;;;;;;;-143.84;39.81;45014.78;5019145;28;20997;-59
2023/10/21 06:32:09;;;;;;;1.00;0.80;;;;;;;-143.84;39.14;45026.22;5017483;28;20451;-59
2023/10/21 06:34:38;;;;;;;0.90;0.60;;;;;;;-143.84;38.69;45014.78;5024000;28;20535;-59
2023/10/21 06:37:05;;;;;;;1.40;0.77;;;;;;;-143.84;38.92;45005.28;5015856;28;20953;-59
2023/10/21 06:39:33;;;;;;;1.00;0.63;;;;;;;-143.84;38.87;45014.78;5019887;28;21157;-59
2023/10/21 06:42:00;;;;;;;2.50;0.67;;;;;;;-143.84;38.17;45018.59;5015071;28;20450;-59
2023/10/21 06:44:28;;;;;;;1.00;0.70;;;;;;;-143.84;37.73;44976.72;5014209;28;21215;-59
2023/10/21 06:46:55;;;;;;;0.87;0.50;;;;;;;-143.84;38.41;44993.84;5016913;28;20450;-59
2023/10/21 06:49:22;;;;;;;0.90;0.50;;;;;;;-143.84;38.25;44991.94;5021514;28;20447;-59
2023/10/21 06:51:50;;;;;;;0.97;0.70;;;;;;;-143.84;38.35;45012.88;5017955;28;20508;-59
2023/10/21 06:54:18;;;;;;;1.53;0.87;;;;;;;-143.84;38.12;45010.97;5018743;28;20530;-59
2023/10/21 06:56:46;;;;;;;1.00;0.80;;;;;;;-143.84;38.04;44986.22;5016070;28;20643;-59
2023/10/21 06:59:14;;;;;;;0.90;0.70;;;;;;;-143.84;38.33;45005.28;5017302;28;20524;-59
2023/10/21 07:01:41;;;;;;;1.63;0.70;;;;;;;-143.84;38.29;45007.19;5022798;28;20589;-59
2023/10/21 07:04:10;;;;;;;1.00;0.70;;;;;;;-143.84;38.04;44993.84;5017453;28;20816;-59
2023/10/21 07:06:38;;;;;;;0.90;0.50;;;;;;;-143.84;38.07;45007.19;5023711;28;21311;-59
2023/10/21 07:09:07;;;;;;;1.10;0.87;;;;;;;-143.84;38.12;44967.19;5028011;28;20538;-59
2023/10/21 07:11:34;;;;;;;1.00;0.70;;;;;;;-143.84;38.27;44991.94;5027253;28;20453;-59
2023/10/21 07:14:02;;;;;;;1.10;0.53;;;;;;;-143.84;38.01;44988.13;5019387;28;20464;-59
2023/10/21 07:16:29;;;;;;;1.63;0.73;;;;;;;-143.84;37.80;44984.31;5020590;28;20461;-59
2023/10/21 07:18:57;;;;;;;1.10;0.50;;;;;;;-143.84;37.38;45010.97;5021262;28;20454;-59
2023/10/21 07:21:24;;;;;;;0.90;0.73;;;;;;;-143.84;37.37;44993.84;5022345;28;21074;-59
2023/10/21 07:23:51;;;;;;;0.93;0.80;;;;;;;-143.84;37.87;44997.66;5024381;28;20975;-59
2023/10/21 07:26:19;;;;;;;0.90;0.50;;;;;;;-143.84;37.27;44986.22;5016088;28;20922;-59
2023/10/21 07:28:47;;;;;;;0.90;0.70;;;;;;;-143.84;37.04;44969.09;5016356;28;20451;-59
2023/10/21 07:31:14;;;;;;;3.37;0.93;;;;;;;-143.84;36.95;44995.75;5024689;28;20446;-58
2023/10/21 07:33:41;;;;;;;1.33;0.80;;;;;;;-143.84;36.80;44972.91;5020772;28;20477;-58
2023/10/21 07:36:08;;;;;;;1.13;1.03;;;;;;;-143.84;36.21;45003.38;5015680;28;20450;-59
2023/10/21 07:38:36;;;;;;;1.00;0.67;;;;;;;-143.84;36.23;44997.66;5020534;28;20448;-58
2023/10/21 07:41:10;;;;;;;0.90;0.60;;;;;;;-143.84;36.44;44993.84;5018927;28;20483;-58
2023/10/21 07:43:39;;;;;;;0.90;0.80;;;;;;;-143.84;36.27;44972.91;5025143;28;20446;-58
2023/10/21 07:46:06;;;;;;;1.20;0.77;;;;;;;-143.84;36.14;44976.72;5015763;28;20455;-59
2023/10/21 07:48:33;;;;;;;1.47;0.87;;;;;;;-143.84;36.18;44978.63;5022924;28;20454;-59
2023/10/21 07:51:00;;;;;;;1.10;0.70;;;;;;;-143.84;36.10;44980.53;5020757;28;20455;-58
2023/10/21 07:53:27;;;;;;;1.13;0.90;;;;;;;-143.84;35.94;44971.00;5023626;28;20474;-58
2023/10/21 07:55:54;;;;;;;1.30;0.60;;;;;;;-143.84;36.04;44980.53;5019278;28;20459;-58
2023/10/21 07:58:22;;;;;;;0.90;0.60;;;;;;;-143.84;35.24;44980.53;5011485;28;20505;-58
2023/10/21 08:00:51;;;;;;;3.77;0.70;;;;;;;-143.84;34.79;44974.81;5011704;28;20585;-58
2023/10/21 08:03:19;;;;;;;0.90;0.60;;;;;;;-143.84;34.98;44980.53;5024743;28;20481;-58
2023/10/21 08:05:46;;;;;;;1.00;0.67;;;;;;;-143.84;35.05;44942.44;5021175;28;20457;-59
2023/10/21 08:08:13;;;;;;;0.80;0.50;;;;;;;-143.84;34.42;44988.13;5023717;28;21092;-58
2023/10/21 08:10:40;;;;;;;0.90;0.60;;;;;;;-143.84;34.12;44942.44;5022563;28;20458;-58
2023/10/21 08:13:07;;;;;;;1.00;0.80;;;;;;;-143.84;34.17;44938.63;5020588;28;20451;-58
2023/10/21 08:15:35;;;;;;;0.90;0.63;;;;;;;-143.84;33.88;44946.25;5022057;28;20446;-58
2023/10/21 08:18:03;;;;;;;1.00;0.73;;;;;;;-143.84;33.38;44944.34;5026339;28;20988;-58
2023/10/21 08:20:30;;;;;;;1.00;0.60;;;;;;;-143.84;33.67;44932.91;5021906;28;20486;-58
2023/10/21 08:22:57;;;;;;;1.70;1.53;;;;;;;-143.84;33.82;44934.81;5021969;28;20915;-58
2023/10/21 08:25:25;;;;;;;0.97;0.57;;;;;;;-143.84;33.35;44927.19;5030520;28;20481;-58
2023/10/21 08:27:52;;;;;;;1.40;0.60;;;;;;;-143.84;32.83;44932.91;5025216;28;20454;-58
2023/10/21 08:30:20;;;;;;;0.90;0.40;;;;;;;-143.84;33.03;44940.53;5018024;28;20455;-59
2023/10/21 08:32:47;;;;;;;0.87;0.47;;;;;;;-143.84;32.73;44929.09;5025776;28;20525;-58
2023/10/21 08:35:16;;;;;;;2.10;1.90;;;;;;;-143.84;32.71;44923.41;5019234;28;20505;-58
2023/10/21 08:37:43;;;;;;;1.27;1.17;;;;;;;-143.84;32.11;44931.00;5029255;28;21358;-58
2023/10/21 08:40:11;;;;;;;2.07;0.63;;;;;;;-143.84;32.32;44951.97;5023623;28;20498;-58
2023/10/21 08:42:38;;;;;;;0.90;0.57;;;;;;;-143.84;31.56;44938.63;5010804;28;20443;-58
2023/10/21 08:45:09;;;;;;;1.63;0.80;;;;;;;-143.84;31.78;44934.81;5010819;28;20544;-58
2023/10/21 08:47:37;;;;;;;0.90;0.60;;;;;;;-143.84;31.24;44927.19;5010814;28;20530;-58
2023/10/21 08:50:05;;;;;;;1.50;0.80;;;;;;;-143.84;31.32;44946.25;5010618;28;20443;-58
2023/10/21 08:52:36;;;;;;;1.37;0.87;;;;;;;-143.84;31.01;44913.88;5010898;28;20816;-59
2023/10/21 08:55:05;;;;;;;1.60;1.40;;;;;;;-143.84;31.04;44904.34;5010928;28;21416;-58
2023/10/21 08:57:33;;;;;;;1.20;0.70;;;;;;;-143.84;30.84;44913.88;4994008;28;20535;-58
2023/10/21 09:00:00;;;;;;;0.90;0.53;;;;;;;-143.84;30.77;44919.59;4990801;28;20451;-58
2023/10/21 09:02:27;;;;;;;1.30;0.73;;;;;;;-143.84;30.55;44913.88;5024719;28;20478;-58
2023/10/21 09:04:54;;;;;;;1.20;0.60;;;;;;;-143.84;31.09;44885.31;5030211;28;20438;-59
2023/10/21 09:07:22;;;;;;;1.20;0.80;;;;;;;-143.84;31.00;44892.94;5030335;28;20450;-58
2023/10/21 09:09:51;;;;;;;1.47;0.90;;;;;;;-143.84;31.49;44923.41;5027338;28;20513;-59
2023/10/21 09:12:18;;;;;;;0.90;0.50;;;;;;;-143.84;31.24;44892.94;5010789;28;20463;-59
2023/10/21 09:14:52;;;;;;;1.30;0.57;;;;;;;-143.84;29.87;44862.47;5010429;28;20435;-59
2023/10/21 09:17:21;;;;;;;1.00;0.60;;;;;;;-143.84;30.29;44891.03;5009960;28;20483;-56
2023/10/21 09:19:52;;;;;;;1.00;0.70;;;;;;;-143.84;30.10;44873.88;5023639;28;20501;-56
2023/10/21 09:22:25;;;;;;;3.13;0.70;;;;;;;-143.84;30.71;44891.03;5030078;28;21310;-56
2023/10/21 09:25:16;;;;;;;1.30;1.10;;;;;;;-143.84;30.24;44879.59;5029809;28;20469;-56
2023/10/21 09:27:53;;;;;;;1.20;1.00;;;;;;;-143.84;30.38;44856.75;5028056;28;20872;-56
2023/10/21 09:34:37;;;;;;;1.43;1.33;;;;;;;-143.84;30.69;44866.28;5032355;28;20953;-56
2023/10/21 09:37:10;;;;;;;1.00;0.73;;;;;;;-143.84;29.61;44860.56;5029584;28;20808;-56
2023/10/21 09:39:47;;;;;;;2.10;1.60;;;;;;;-143.84;30.28;44862.47;5027517;28;20446;-56
2023/10/21 09:42:29;;;;;;;2.17;1.93;;;;;;;-143.84;29.62;44870.09;5009106;28;20490;-56
2023/10/21 09:44:58;;;;;;;3.13;2.03;;;;;;;-143.84;29.66;44866.28;5009452;28;20439;-56
2023/10/21 09:47:29;;;;;;;3.10;2.90;;;;;;;-143.84;30.07;44858.66;5008824;28;20447;-56
2023/10/21 09:50:01;;;;;;;3.17;2.93;;;;;;;-143.84;29.62;44852.94;5008856;28;20447;-56
2023/10/21 09:52:39;;;;;;;11.73;2.60;;;;;;;-143.84;29.45;44856.75;5009186;28;20451;-56
2023/10/21 09:55:09;;;;;;;2.30;2.10;;;;;;;-143.84;29.70;44843.44;5009992;28;20453;-56
2023/10/21 09:57:38;;;;;;;2.20;1.90;;;;;;;-143.84;29.30;44852.94;5009480;28;20505;-56
2023/10/21 10:00:08;;;;;;;4.07;2.40;;;;;;;-143.84;29.19;44856.75;5013923;28;20539;-56
2023/10/21 10:02:36;;;;;;;1.60;1.17;;;;;;;-143.84;29.40;44839.63;5029484;28;21493;-56
2023/10/21 10:05:07;;;;;;;7.90;6.20;;;;;;;-143.84;30.17;44820.56;5029591;28;20546;-57
2023/10/21 10:07:36;;;;;;;7.50;2.90;;;;;;;-143.84;29.31;44820.56;5028957;28;20447;-57
2023/10/21 10:10:05;;;;;;;1.47;1.37;;;;;;;-143.84;28.84;44835.81;5029048;28;20457;-57
2023/10/21 10:12:37;;;;;;;2.23;2.03;;;;;;;-143.84;28.57;44841.53;5029135;28;20513;-57
2023/10/21 10:15:31;;;;;;;1.20;0.83;;;;;;;-143.84;28.28;44854.84;5028711;28;20521;-57
2023/10/21 10:17:58;;;;;;;2.23;1.43;;;;;;;-143.84;28.68;44830.09;4989219;28;20586;-57
2023/10/21 10:20:27;;;;;;;1.60;1.50;;;;;;;-143.84;28.86;44837.72;4989844;28;20865;-59
2023/10/21 10:23:02;;;;;;;2.80;2.10;;;;;;;-143.84;28.70;44820.56;4989359;28;21009;-59
2023/10/21 10:25:34;;;;;;;3.53;2.70;;;;;;;-143.84;28.61;44841.53;4989191;28;20943;-59
2023/10/21 10:28:05;;;;;;;9.37;5.70;;;;;;;-143.84;28.55;44832.00;4989309;28;20517;-59
2023/10/21 10:30:33;;;;;;;3.20;2.40;;;;;;;-143.84;27.03;44795.81;4989289;28;20440;-59
2023/10/21 10:33:07;;;;;;;3.40;2.80;;;;;;;-143.84;27.53;44830.09;5005268;28;20459;-59
2023/10/21 10:35:39;;;;;;;3.30;2.20;;;;;;;-143.84;27.68;44814.88;5006181;28;20563;-59
2023/10/21 10:38:24;;;;;;;0.90;0.70;;;;;;;-143.84;27.60;44814.88;5011116;28;21515;-59
2023/10/21 10:40:52;;;;;;;1.10;0.70;;;;;;;-143.84;27.52;44811.06;5006717;28;20455;-59
2023/10/21 10:43:19;;;;;;;0.90;0.60;;;;;;;-143.84;27.27;44845.31;5009028;28;20494;-59
2023/10/21 10:45:48;;;;;;;2.00;1.00;;;;;;;-143.84;27.37;44841.53;5008783;28;20447;-59
2023/10/21 10:48:16;;;;;;;0.90;0.67;;;;;;;-143.84;27.27;44803.44;5008848;28;20935;-59
2023/10/21 10:50:42;;;;;;;0.90;0.70;;;;;;;-143.84;27.13;44805.34;5008863;28;20439;-59
2023/10/21 10:53:13;;;;;;;0.90;0.50;;;;;;;-143.84;27.23;44833.91;5006680;28;20510;-59
2023/10/21 10:55:47;;;;;;;0.90;0.50;;;;;;;-143.84;26.91;44822.47;5007043;28;20527;-59
2023/10/21 10:58:14;;;;;;;1.10;0.60;;;;;;;-143.84;27.37;44820.56;4998984;28;20442;-59
2023/10/21 11:00:43;;;;;;;1.00;0.47;;;;;;;-143.84;27.38;44833.91;5012120;28;20451;-59
2023/10/21 11:03:11;;;;;;;1.20;0.70;;;;;;;-143.84;26.61;44828.19;5009184;28;20491;-59
2023/10/21 11:05:38;;;;;;;0.90;0.40;;;;;;;-143.84;27.49;44830.09;5026370;28;20454;-59
2023/10/21 11:08:09;;;;;;;1.07;0.90;;;;;;;-143.84;26.53;44835.81;5028347;28;20523;-59
2023/10/21 11:10:36;;;;;;;1.17;1.07;;;;;;;-143.84;26.48;44805.34;5028399;28;20533;-59
2023/10/21 11:13:05;;;;;;;1.00;0.60;;;;;;;-143.84;26.82;44788.22;5028152;28;20493;-59
2023/10/21 11:15:35;;;;;;;0.90;0.50;;;;;;;-143.84;26.53;44809.16;5017957;28;20840;-59
2023/10/21 11:18:03;;;;;;;0.97;0.50;;;;;;;-143.84;26.98;44797.72;5008567;28;20498;-59
2023/10/21 11:20:32;;;;;;;1.00;0.73;;;;;;;-143.84;27.17;44820.56;5007984;28;20457;-59
2023/10/21 11:23:10;;;;;;;1.30;0.90;;;;;;;-143.84;26.57;44793.91;5007819;28;20487;-59
2023/10/21 11:25:37;;;;;;;3.80;1.00;;;;;;;-143.84;26.94;44828.19;5006433;28;20521;-59